Time;durP1;ratioP1;P1;durP2;ratioP2;P2;SDS_P1;SDS_P2;PMS_P1;PMS_P2;Temp;Humidity;BMP_temperature;BMP_pressure;BME280_temperature;BME280_humidity;BME280_pressure;Samples;Min_cycle;Max_cycle;Signal;HPM_P1;HPM_P2
2023/09/16 00:00:56;;;;;;;;;;;;;;;;;;5088513;28;20378;-59
2023/09/16 00:03:22;;;;;;;;;;;;;;;;;;5081920;28;19954;-59
2023/09/16 00:05:48;;;;;;;;;;;;;;;;;;5080004;28;19927;-60
2023/09/16 00:08:14;;;;;;;;;;;;;;;;;;5080997;28;19943;-60
2023/09/16 00:10:40;;;;;;;;;;;;;;;;;;5093769;28;19908;-59
2023/09/16 00:13:06;;;;;;;;;;;;;;;;;;5083081;28;20283;-60
2023/09/16 00:15:32;;;;;;;;;;;;;;;;;;5084787;28;19916;-59
2023/09/16 00:17:58;;;;;;;;;;;;;;;;;;5087821;28;20357;-60
2023/09/16 00:20:28;;;;;;;;;;;;;;;;;;5086357;28;19963;-60
2023/09/16 00:22:54;;;;;;;;;;;;;;;;;;5079708;28;19920;-60
2023/09/16 00:25:20;;;;;;;;;;;;;;;;;;5074119;28;20433;-59
2023/09/16 00:27:46;;;;;;;;;;;;;;;;;;5075867;28;19913;-60
2023/09/16 00:30:12;;;;;;;;;;;;;;;;;;5079291;28;20382;-62
2023/09/16 00:32:38;;;;;;;;;;;;;;;;;;5072700;28;19912;-63
2023/09/16 00:35:04;;;;;;;;;;;;;;;;;;5084053;28;19920;-63
2023/09/16 00:37:30;;;;;;;;;;;;;;;;;;5073910;28;19913;-64
2023/09/16 00:39:56;;;;;;;;;;;;;;;;;;5088030;28;19912;-63
2023/09/16 00:42:22;;;;;;;;;;;;;;;;;;5089794;28;19912;-63
2023/09/16 00:44:48;;;;;;;;;;;;;;;;;;5093384;28;19952;-62
2023/09/16 00:47:14;;;;;;;;;;;;;;;;;;5091464;28;20006;-62
2023/09/16 00:49:39;;;;;;;;;;;;;;;;;;5074313;28;19999;-63
2023/09/16 00:52:05;;;;;;;;;;;;;;;;;;5077966;28;19963;-63
2023/09/16 00:54:31;;;;;;;;;;;;;;;;;;5076396;28;20372;-63
2023/09/16 00:56:57;;;;;;;;;;;;;;;;;;5089458;28;19968;-62
2023/09/16 00:59:23;;;;;;;;;;;;;;;;;;5084026;28;20325;-63
2023/09/16 01:01:50;;;;;;;;;;;;;;;;;;5078355;28;20417;-61
2023/09/16 01:04:16;;;;;;;;;;;;;;;;;;5085260;28;19960;-63
2023/09/16 01:06:43;;;;;;;;;;;;;;;;;;5077316;28;20012;-62
2023/09/16 01:09:10;;;;;;;;;;;;;;;;;;5086070;28;19912;-62
2023/09/16 01:11:36;;;;;;;;;;;;;;;;;;5077862;28;19999;-63
2023/09/16 01:14:03;;;;;;;;;;;;;;;;;;5076368;28;20030;-63
2023/09/16 01:16:29;;;;;;;;;;;;;;;;;;5083821;28;19961;-63
2023/09/16 01:18:55;;;;;;;;;;;;;;;;;;5076435;28;19955;-62
2023/09/16 01:21:22;;;;;;;;;;;;;;;;;;5076086;28;19960;-63
2023/09/16 01:23:48;;;;;;;;;;;;;;;;;;5078777;28;19965;-64
2023/09/16 01:26:14;;;;;;;;;;;;;;;;;;5084877;28;20627;-63
2023/09/16 01:28:40;;;;;;;;;;;;;;;;;;5083099;28;20389;-63
2023/09/16 01:31:05;;;;;;;;;;;;;;;;;;5079544;28;20018;-62
2023/09/16 01:33:32;;;;;;;;;;;;;;;;;;5078893;28;19916;-63
2023/09/16 01:35:58;;;;;;;;;;;;;;;;;;5092507;28;19916;-62
2023/09/16 01:38:24;;;;;;;;;;;;;;;;;;5088863;28;20410;-62
2023/09/16 01:40:50;;;;;;;;;;;;;;;;;;5088000;28;19912;-65
2023/09/16 01:43:16;;;;;;;;;;;;;;;;;;5079708;28;19956;-62
2023/09/16 01:45:42;;;;;;;;;;;;;;;;;;5072677;28;19913;-62
2023/09/16 01:48:08;;;;;;;;;;;;;;;;;;5080212;28;19922;-63
2023/09/16 01:50:35;;;;;;;;;;;;;;;;;;5081683;28;20000;-63
2023/09/16 01:53:01;;;;;;;;;;;;;;;;;;5091730;28;20352;-63
2023/09/16 01:55:27;;;;;;;;;;;;;;;;;;5084328;28;19974;-63
2023/09/16 01:57:53;;;;;;;;;;;;;;;;;;5071959;28;19912;-62
2023/09/16 02:00:19;;;;;;;;;;;;;;;;;;5084650;28;19920;-63
2023/09/16 02:02:45;;;;;;;;;;;;;;;;;;5076619;28;20006;-62
2023/09/16 02:05:10;;;;;;;;;;;;;;;;;;5081284;28;19963;-65
2023/09/16 02:07:36;;;;;;;;;;;;;;;;;;5088454;28;20028;-62
2023/09/16 02:10:03;;;;;;;;;;;;;;;;;;5083236;28;19912;-60
2023/09/16 02:12:29;;;;;;;;;;;;;;;;;;5072327;28;20388;-59
2023/09/16 02:14:55;;;;;;;;;;;;;;;;;;5087382;28;20383;-62
2023/09/16 02:17:21;;;;;;;;;;;;;;;;;;5087316;28;19940;-60
2023/09/16 02:19:46;;;;;;;;;;;;;;;;;;5080731;28;19917;-60
2023/09/16 02:22:12;;;;;;;;;;;;;;;;;;5086464;28;19926;-60
2023/09/16 02:24:38;;;;;;;;;;;;;;;;;;5082950;28;19916;-60
2023/09/16 02:27:04;;;;;;;;;;;;;;;;;;5094549;28;19920;-60
2023/09/16 02:29:30;;;;;;;;;;;;;;;;;;5095529;28;20352;-60
2023/09/16 02:31:56;;;;;;;;;;;;;;;;;;5082822;28;19912;-60
2023/09/16 02:34:22;;;;;;;;;;;;;;;;;;5077849;28;19916;-59
2023/09/16 02:36:48;;;;;;;;;;;;;;;;;;5086884;28;19955;-61
2023/09/16 02:39:14;;;;;;;;;;;;;;;;;;5089047;28;19916;-62
2023/09/16 02:41:40;;;;;;;;;;;;;;;;;;5095246;28;20347;-60
2023/09/16 02:44:07;;;;;;;;;;;;;;;;;;5080368;28;20426;-62
2023/09/16 02:46:33;;;;;;;;;;;;;;;;;;5087092;28;19955;-60
2023/09/16 02:48:59;;;;;;;;;;;;;;;;;;5085627;28;19948;-60
2023/09/16 02:51:25;;;;;;;;;;;;;;;;;;5084755;28;20363;-59
2023/09/16 02:53:51;;;;;;;;;;;;;;;;;;5087743;28;20005;-59
2023/09/16 02:56:17;;;;;;;;;;;;;;;;;;5087988;28;19923;-61
2023/09/16 02:58:43;;;;;;;;;;;;;;;;;;5084246;28;19952;-59
2023/09/16 03:01:09;;;;;;;;;;;;;;;;;;5085122;28;19934;-61
2023/09/16 03:03:35;;;;;;;;;;;;;;;;;;5075750;28;19912;-61
2023/09/16 03:06:01;;;;;;;;;;;;;;;;;;5080750;28;19961;-61
2023/09/16 03:08:27;;;;;;;;;;;;;;;;;;5080596;28;19937;-61
2023/09/16 03:10:53;;;;;;;;;;;;;;;;;;5083230;28;19913;-62
2023/09/16 03:13:19;;;;;;;;;;;;;;;;;;5082962;28;20045;-61
2023/09/16 03:15:45;;;;;;;;;;;;;;;;;;5082891;28;19916;-61
2023/09/16 03:18:11;;;;;;;;;;;;;;;;;;5080491;28;20322;-61
2023/09/16 03:20:37;;;;;;;;;;;;;;;;;;5078663;28;19927;-61
2023/09/16 03:23:03;;;;;;;;;;;;;;;;;;5083410;28;19965;-61
2023/09/16 03:25:28;;;;;;;;;;;;;;;;;;5074129;28;19944;-59
2023/09/16 03:27:54;;;;;;;;;;;;;;;;;;5084882;28;19916;-61
2023/09/16 03:30:21;;;;;;;;;;;;;;;;;;5078915;28;20379;-61
2023/09/16 03:32:46;;;;;;;;;;;;;;;;;;5080498;28;19916;-61
2023/09/16 03:35:12;;;;;;;;;;;;;;;;;;5081793;28;19950;-61
2023/09/16 03:37:38;;;;;;;;;;;;;;;;;;5077137;28;20356;-61
2023/09/16 03:40:04;;;;;;;;;;;;;;;;;;5085570;28;19964;-62
2023/09/16 03:42:30;;;;;;;;;;;;;;;;;;5091615;28;19934;-61
2023/09/16 03:44:56;;;;;;;;;;;;;;;;;;5089941;28;19908;-61
2023/09/16 03:47:22;;;;;;;;;;;;;;;;;;5086669;28;20002;-61
2023/09/16 03:49:48;;;;;;;;;;;;;;;;;;5088877;28;19918;-61
2023/09/16 03:52:14;;;;;;;;;;;;;;;;;;5089363;28;19916;-59
2023/09/16 03:54:39;;;;;;;;;;;;;;;;;;5078576;28;20382;-61
2023/09/16 03:57:05;;;;;;;;;;;;;;;;;;5085413;28;19914;-60
2023/09/16 03:59:31;;;;;;;;;;;;;;;;;;5076396;28;19912;-61
2023/09/16 04:01:57;;;;;;;;;;;;;;;;;;5084448;28;19966;-58
2023/09/16 04:04:23;;;;;;;;;;;;;;;;;;5079939;28;19908;-61
2023/09/16 04:06:49;;;;;;;;;;;;;;;;;;5076675;28;19948;-61
2023/09/16 04:09:16;;;;;;;;;;;;;;;;;;5077129;28;20327;-60
2023/09/16 04:11:41;;;;;;;;;;;;;;;;;;5088879;28;19919;-61
2023/09/16 04:14:07;;;;;;;;;;;;;;;;;;5083456;28;20296;-61
2023/09/16 04:16:33;;;;;;;;;;;;;;;;;;5085074;28;19969;-61
2023/09/16 04:18:59;;;;;;;;;;;;;;;;;;5076781;28;19948;-61
2023/09/16 04:21:26;;;;;;;;;;;;;;;;;;5081783;28;19920;-61
2023/09/16 04:23:52;;;;;;;;;;;;;;;;;;5082685;28;19966;-61
2023/09/16 04:26:20;;;;;;;;;;;;;;;;;;5084705;28;19967;-61
2023/09/16 04:28:46;;;;;;;;;;;;;;;;;;5079783;28;20360;-60
2023/09/16 04:31:12;;;;;;;;;;;;;;;;;;5088691;28;19912;-58
2023/09/16 04:33:38;;;;;;;;;;;;;;;;;;5079111;28;20007;-60
2023/09/16 04:36:04;;;;;;;;;;;;;;;;;;5088269;28;20010;-58
2023/09/16 04:38:30;;;;;;;;;;;;;;;;;;5077586;28;20367;-58
2023/09/16 04:40:56;;;;;;;;;;;;;;;;;;5072931;28;19958;-58
2023/09/16 04:43:25;;;;;;;;;;;;;;;;;;5080329;28;19908;-58
2023/09/16 04:45:51;;;;;;;;;;;;;;;;;;5085893;28;20018;-59
2023/09/16 04:48:17;;;;;;;;;;;;;;;;;;5076396;28;19920;-58
2023/09/16 04:50:43;;;;;;;;;;;;;;;;;;5080757;28;19913;-58
2023/09/16 04:53:09;;;;;;;;;;;;;;;;;;5081976;28;20334;-58
2023/09/16 04:55:35;;;;;;;;;;;;;;;;;;5084491;28;19944;-58
2023/09/16 04:58:01;;;;;;;;;;;;;;;;;;5077330;28;20333;-58
2023/09/16 05:00:33;;;;;;;;;;;;;;;;;;5083450;28;19954;-60
2023/09/16 05:02:58;;;;;;;;;;;;;;;;;;5080567;28;20390;-59
2023/09/16 05:05:24;;;;;;;;;;;;;;;;;;5079670;28;19916;-59
2023/09/16 05:07:50;;;;;;;;;;;;;;;;;;5082275;28;19962;-58
2023/09/16 05:10:16;;;;;;;;;;;;;;;;;;5076510;28;19951;-58
2023/09/16 05:12:42;;;;;;;;;;;;;;;;;;5079175;28;19912;-57
2023/09/16 05:15:08;;;;;;;;;;;;;;;;;;5081118;28;20385;-59
2023/09/16 05:17:35;;;;;;;;;;;;;;;;;;5073932;28;19912;-58
2023/09/16 05:20:01;;;;;;;;;;;;;;;;;;5072677;28;19938;-58
2023/09/16 05:22:26;;;;;;;;;;;;;;;;;;5078423;28;19958;-58
2023/09/16 05:24:52;;;;;;;;;;;;;;;;;;5081474;28;19913;-60
2023/09/16 05:27:18;;;;;;;;;;;;;;;;;;5068516;28;20508;-58
2023/09/16 05:29:44;;;;;;;;;;;;;;;;;;5076075;28;19955;-60
2023/09/16 05:32:10;;;;;;;;;;;;;;;;;;5086531;28;19963;-58
2023/09/16 05:34:36;;;;;;;;;;;;;;;;;;5083620;28;19963;-61
2023/09/16 05:37:03;;;;;;;;;;;;;;;;;;5077393;28;19913;-59
2023/09/16 05:39:29;;;;;;;;;;;;;;;;;;5076848;28;20011;-60
2023/09/16 05:41:55;;;;;;;;;;;;;;;;;;5080590;28;20019;-58
2023/09/16 05:44:21;;;;;;;;;;;;;;;;;;5075255;28;20394;-59
2023/09/16 05:46:47;;;;;;;;;;;;;;;;;;5075614;28;20285;-61
2023/09/16 05:49:13;;;;;;;;;;;;;;;;;;5081723;28;19920;-58
2023/09/16 05:51:39;;;;;;;;;;;;;;;;;;5083209;28;19971;-58
2023/09/16 05:54:05;;;;;;;;;;;;;;;;;;5078167;28;19937;-60
2023/09/16 05:56:32;;;;;;;;;;;;;;;;;;5088097;28;19912;-58
2023/09/16 05:58:58;;;;;;;;;;;;;;;;;;5081080;28;19999;-59
2023/09/16 06:01:24;;;;;;;;;;;;;;;;;;5084500;28;20368;-58
2023/09/16 06:03:51;;;;;;;;;;;;;;;;;;5078562;28;19918;-58
2023/09/16 06:06:17;;;;;;;;;;;;;;;;;;5087328;28;19954;-59
2023/09/16 06:08:43;;;;;;;;;;;;;;;;;;5087791;28;19920;-60
2023/09/16 06:11:09;;;;;;;;;;;;;;;;;;5077063;28;19935;-59
2023/09/16 06:13:35;;;;;;;;;;;;;;;;;;5086483;28;20436;-58
2023/09/16 06:16:01;;;;;;;;;;;;;;;;;;5083592;28;19916;-58
2023/09/16 06:18:27;;;;;;;;;;;;;;;;;;5084135;28;19955;-59
2023/09/16 06:20:53;;;;;;;;;;;;;;;;;;5086820;28;19927;-58
2023/09/16 06:23:19;;;;;;;;;;;;;;;;;;5077019;28;19948;-58
2023/09/16 06:25:45;;;;;;;;;;;;;;;;;;5084591;28;19963;-60
2023/09/16 06:28:11;;;;;;;;;;;;;;;;;;5088170;28;19916;-58
2023/09/16 06:30:37;;;;;;;;;;;;;;;;;;5076186;28;19963;-58
2023/09/16 06:33:02;;;;;;;;;;;;;;;;;;5084702;28;19943;-58
2023/09/16 06:35:28;;;;;;;;;;;;;;;;;;5085699;28;19955;-59
2023/09/16 06:37:54;;;;;;;;;;;;;;;;;;5088024;28;19999;-58
2023/09/16 06:40:20;;;;;;;;;;;;;;;;;;5078106;28;19923;-59
2023/09/16 06:42:46;;;;;;;;;;;;;;;;;;5079093;28;20387;-58
2023/09/16 06:45:12;;;;;;;;;;;;;;;;;;5089230;28;20038;-59
2023/09/16 06:47:38;;;;;;;;;;;;;;;;;;5087415;28;19916;-59
2023/09/16 06:50:06;;;;;;;;;;;;;;;;;;5077883;28;19916;-63
2023/09/16 06:52:31;;;;;;;;;;;;;;;;;;5079252;28;20387;-61
2023/09/16 06:54:57;;;;;;;;;;;;;;;;;;5079774;28;19968;-62
2023/09/16 06:57:23;;;;;;;;;;;;;;;;;;5086454;28;19956;-64
2023/09/16 06:59:49;;;;;;;;;;;;;;;;;;5081997;28;20525;-64
2023/09/16 07:02:15;;;;;;;;;;;;;;;;;;5082739;28;19959;-63
2023/09/16 07:04:42;;;;;;;;;;;;;;;;;;5083585;28;20014;-63
2023/09/16 07:07:08;;;;;;;;;;;;;;;;;;5081391;28;20249;-64
2023/09/16 07:09:34;;;;;;;;;;;;;;;;;;5078164;28;19926;-63
2023/09/16 07:12:00;;;;;;;;;;;;;;;;;;5082675;28;19951;-62
2023/09/16 07:14:26;;;;;;;;;;;;;;;;;;5078808;28;19916;-64
2023/09/16 07:16:52;;;;;;;;;;;;;;;;;;5078209;28;19978;-63
2023/09/16 07:19:17;;;;;;;;;;;;;;;;;;5080458;28;20014;-64
2023/09/16 07:21:43;;;;;;;;;;;;;;;;;;5080831;28;19926;-60
2023/09/16 07:24:09;;;;;;;;;;;;;;;;;;5075205;28;20005;-63
2023/09/16 07:26:35;;;;;;;;;;;;;;;;;;5078174;28;19916;-63
2023/09/16 07:29:01;;;;;;;;;;;;;;;;;;5082584;28;20354;-64
2023/09/16 07:31:27;;;;;;;;;;;;;;;;;;5077386;28;19963;-62
2023/09/16 07:33:53;;;;;;;;;;;;;;;;;;5078104;28;19990;-64
2023/09/16 07:36:19;;;;;;;;;;;;;;;;;;5079829;28;20014;-64
2023/09/16 07:38:45;;;;;;;;;;;;;;;;;;5086235;28;19912;-61
2023/09/16 07:41:11;;;;;;;;;;;;;;;;;;5074346;28;20372;-63
2023/09/16 07:43:36;;;;;;;;;;;;;;;;;;5082506;28;20009;-64
2023/09/16 07:46:02;;;;;;;;;;;;;;;;;;5074828;28;19963;-62
2023/09/16 07:48:28;;;;;;;;;;;;;;;;;;5084074;28;19919;-64
2023/09/16 07:50:54;;;;;;;;;;;;;;;;;;5082672;28;19916;-64
2023/09/16 07:53:20;;;;;;;;;;;;;;;;;;5077232;28;19947;-63
2023/09/16 07:55:46;;;;;;;;;;;;;;;;;;5074408;28;20376;-64
2023/09/16 07:58:12;;;;;;;;;;;;;;;;;;5077119;28;19947;-63
2023/09/16 08:00:38;;;;;;;;;;;;;;;;;;5081397;28;19920;-64
2023/09/16 08:03:04;;;;;;;;;;;;;;;;;;5082194;28;19990;-64
2023/09/16 08:05:30;;;;;;;;;;;;;;;;;;5077546;28;20000;-64
2023/09/16 08:07:55;;;;;;;;;;;;;;;;;;5082014;28;20359;-62
2023/09/16 08:10:21;;;;;;;;;;;;;;;;;;5074959;28;19930;-61
2023/09/16 08:12:47;;;;;;;;;;;;;;;;;;5091245;28;20261;-64
2023/09/16 08:15:13;;;;;;;;;;;;;;;;;;5080779;28;19916;-63
2023/09/16 08:17:39;;;;;;;;;;;;;;;;;;5071347;28;20367;-63
2023/09/16 08:20:05;;;;;;;;;;;;;;;;;;5077439;28;19962;-63
2023/09/16 08:22:31;;;;;;;;;;;;;;;;;;5082535;28;20389;-60
2023/09/16 08:24:57;;;;;;;;;;;;;;;;;;5077714;28;19920;-61
2023/09/16 08:27:23;;;;;;;;;;;;;;;;;;5080015;28;20416;-62
2023/09/16 08:29:49;;;;;;;;;;;;;;;;;;5076606;28;20396;-63
2023/09/16 08:32:15;;;;;;;;;;;;;;;;;;5078385;28;19936;-62
2023/09/16 08:34:41;;;;;;;;;;;;;;;;;;5080784;28;19951;-63
2023/09/16 08:37:07;;;;;;;;;;;;;;;;;;5075275;28;19926;-62
2023/09/16 08:39:33;;;;;;;;;;;;;;;;;;5078339;28;20142;-62
2023/09/16 08:41:59;;;;;;;;;;;;;;;;;;5088502;28;19941;-63
2023/09/16 08:44:25;;;;;;;;;;;;;;;;;;5077221;28;20002;-62
2023/09/16 08:46:51;;;;;;;;;;;;;;;;;;5072807;28;19965;-63
2023/09/16 08:49:16;;;;;;;;;;;;;;;;;;5076017;28;19991;-63
2023/09/16 08:51:43;;;;;;;;;;;;;;;;;;5084787;28;19954;-62
2023/09/16 08:54:09;;;;;;;;;;;;;;;;;;5083280;28;20367;-63
2023/09/16 08:56:35;;;;;;;;;;;;;;;;;;5085221;28;20016;-63
2023/09/16 08:59:01;;;;;;;;;;;;;;;;;;5077309;28;19912;-63
2023/09/16 09:01:27;;;;;;;;;;;;;;;;;;5079575;28;20380;-63
2023/09/16 09:03:53;;;;;;;;;;;;;;;;;;5079900;28;19912;-63
2023/09/16 09:06:19;;;;;;;;;;;;;;;;;;5080668;28;19955;-62
2023/09/16 09:08:45;;;;;;;;;;;;;;;;;;5078995;28;19976;-60
2023/09/16 09:11:14;;;;;;;;;;;;;;;;;;5081905;28;19969;-64
2023/09/16 09:13:40;;;;;;;;;;;;;;;;;;5077372;28;20356;-61
2023/09/16 09:16:06;;;;;;;;;;;;;;;;;;5077236;28;20051;-64
2023/09/16 09:18:32;;;;;;;;;;;;;;;;;;5078612;28;19912;-63
2023/09/16 09:20:58;;;;;;;;;;;;;;;;;;5081276;28;19976;-63
2023/09/16 09:23:24;;;;;;;;;;;;;;;;;;5086038;28;19916;-63
2023/09/16 09:25:50;;;;;;;;;;;;;;;;;;5076531;28;19966;-62
2023/09/16 09:28:16;;;;;;;;;;;;;;;;;;5077787;28;20372;-63
2023/09/16 09:30:41;;;;;;;;;;;;;;;;;;5085336;28;19916;-64
2023/09/16 09:33:07;;;;;;;;;;;;;;;;;;5075992;28;20355;-63
2023/09/16 09:35:33;;;;;;;;;;;;;;;;;;5080595;28;19916;-64
2023/09/16 09:37:59;;;;;;;;;;;;;;;;;;5079716;28;20049;-64
2023/09/16 09:40:26;;;;;;;;;;;;;;;;;;5078449;28;20352;-64
2023/09/16 09:42:52;;;;;;;;;;;;;;;;;;5080059;28;19919;-63
2023/09/16 09:45:18;;;;;;;;;;;;;;;;;;5072940;28;19959;-64
2023/09/16 09:47:44;;;;;;;;;;;;;;;;;;5078523;28;19948;-61
2023/09/16 09:50:10;;;;;;;;;;;;;;;;;;5082757;28;20321;-64
2023/09/16 09:52:36;;;;;;;;;;;;;;;;;;5079872;28;19913;-63
2023/09/16 09:55:02;;;;;;;;;;;;;;;;;;5074672;28;20006;-63
2023/09/16 09:57:27;;;;;;;;;;;;;;;;;;5074936;28;19951;-65
2023/09/16 09:59:53;;;;;;;;;;;;;;;;;;5079030;28;19938;-64
2023/09/16 10:02:19;;;;;;;;;;;;;;;;;;5072440;28;20425;-63
2023/09/16 10:04:45;;;;;;;;;;;;;;;;;;5077958;28;20010;-62
2023/09/16 10:07:11;;;;;;;;;;;;;;;;;;5072998;28;19921;-64
2023/09/16 10:09:37;;;;;;;;;;;;;;;;;;5072918;28;20346;-62
2023/09/16 10:12:03;;;;;;;;;;;;;;;;;;5072122;28;20434;-63
2023/09/16 10:14:29;;;;;;;;;;;;;;;;;;5076904;28;19927;-64
2023/09/16 10:16:55;;;;;;;;;;;;;;;;;;5075344;28;20399;-64
2023/09/16 10:19:21;;;;;;;;;;;;;;;;;;5075976;28;19931;-64
2023/09/16 10:21:47;;;;;;;;;;;;;;;;;;5078875;28;20273;-60
2023/09/16 10:24:12;;;;;;;;;;;;;;;;;;5076307;28;19955;-64
2023/09/16 10:26:38;;;;;;;;;;;;;;;;;;5079382;28;20034;-64
2023/09/16 10:29:04;;;;;;;;;;;;;;;;;;5077149;28;21699;-65
2023/09/16 10:31:30;;;;;;;;;;;;;;;;;;5079479;28;19957;-63
2023/09/16 10:33:56;;;;;;;;;;;;;;;;;;5073246;28;20297;-61
2023/09/16 10:36:22;;;;;;;;;;;;;;;;;;5074469;28;19923;-62
2023/09/16 10:38:48;;;;;;;;;;;;;;;;;;5074994;28;19920;-64
2023/09/16 10:41:14;;;;;;;;;;;;;;;;;;5084532;28;19919;-64
2023/09/16 10:43:40;;;;;;;;;;;;;;;;;;5079010;28;20252;-64
2023/09/16 10:46:06;;;;;;;;;;;;;;;;;;5084621;28;19951;-64
2023/09/16 10:48:32;;;;;;;;;;;;;;;;;;5079521;28;19963;-65
2023/09/16 10:50:57;;;;;;;;;;;;;;;;;;5076166;28;19912;-64
2023/09/16 10:53:24;;;;;;;;;;;;;;;;;;5079811;28;19960;-64
2023/09/16 10:55:50;;;;;;;;;;;;;;;;;;5088146;28;19923;-63
2023/09/16 10:58:16;;;;;;;;;;;;;;;;;;5077979;28;19916;-64
2023/09/16 11:00:42;;;;;;;;;;;;;;;;;;5083117;28;20575;-64
2023/09/16 11:03:08;;;;;;;;;;;;;;;;;;5082657;28;20039;-64
2023/09/16 11:05:34;;;;;;;;;;;;;;;;;;5080680;28;19956;-64
2023/09/16 11:08:00;;;;;;;;;;;;;;;;;;5083951;28;20007;-64
2023/09/16 11:10:26;;;;;;;;;;;;;;;;;;5084785;28;20085;-64
2023/09/16 11:12:52;;;;;;;;;;;;;;;;;;5083952;28;19912;-63
2023/09/16 11:15:18;;;;;;;;;;;;;;;;;;5074539;28;19956;-62
2023/09/16 11:17:43;;;;;;;;;;;;;;;;;;5080177;28;20009;-61
2023/09/16 11:20:09;;;;;;;;;;;;;;;;;;5080187;28;19928;-63
2023/09/16 11:22:35;;;;;;;;;;;;;;;;;;5075190;28;20715;-62
2023/09/16 11:25:01;;;;;;;;;;;;;;;;;;5080347;28;19916;-63
2023/09/16 11:27:27;;;;;;;;;;;;;;;;;;5082084;28;19908;-63
2023/09/16 11:29:53;;;;;;;;;;;;;;;;;;5079627;28;20012;-63
2023/09/16 11:32:21;;;;;;;;;;;;;;;;;;5078158;28;20037;-59
2023/09/16 11:34:47;;;;;;;;;;;;;;;;;;5078688;28;19956;-58
2023/09/16 11:37:13;;;;;;;;;;;;;;;;;;5079516;28;19963;-58
2023/09/16 11:39:40;;;;;;;;;;;;;;;;;;5081242;28;20003;-56
2023/09/16 11:42:07;;;;;;;;;;;;;;;;;;5079413;28;19943;-57
2023/09/16 11:44:33;;;;;;;;;;;;;;;;;;5081098;28;19916;-58
2023/09/16 11:46:59;;;;;;;;;;;;;;;;;;5079488;28;19913;-56
2023/09/16 11:49:25;;;;;;;;;;;;;;;;;;5080754;28;19992;-57
2023/09/16 11:51:51;;;;;;;;;;;;;;;;;;5077871;28;19955;-56
2023/09/16 11:54:17;;;;;;;;;;;;;;;;;;5080376;28;19926;-56
2023/09/16 11:56:43;;;;;;;;;;;;;;;;;;5082909;28;19912;-57
2023/09/16 11:59:09;;;;;;;;;;;;;;;;;;5079143;28;20493;-56
2023/09/16 12:01:36;;;;;;;;;;;;;;;;;;5078925;28;19988;-56
2023/09/16 12:04:03;;;;;;;;;;;;;;;;;;5076508;28;19920;-56
2023/09/16 12:06:31;;;;;;;;;;;;;;;;;;5079549;28;19951;-58
2023/09/16 12:08:57;;;;;;;;;;;;;;;;;;5075705;28;20305;-57
2023/09/16 12:11:23;;;;;;;;;;;;;;;;;;5085312;28;20001;-56
2023/09/16 12:13:49;;;;;;;;;;;;;;;;;;5074565;28;19912;-57
2023/09/16 12:16:15;;;;;;;;;;;;;;;;;;5076519;28;20028;-56
2023/09/16 12:18:42;;;;;;;;;;;;;;;;;;5079288;28;19913;-57
2023/09/16 12:21:08;;;;;;;;;;;;;;;;;;5083962;28;19924;-56
2023/09/16 12:23:34;;;;;;;;;;;;;;;;;;5087549;28;19991;-57
2023/09/16 12:26:00;;;;;;;;;;;;;;;;;;5082512;28;19930;-57
2023/09/16 12:28:27;;;;;;;;;;;;;;;;;;5081253;28;19986;-57
2023/09/16 12:30:55;;;;;;;;;;;;;;;;;;5074153;28;19923;-57
2023/09/16 12:33:21;;;;;;;;;;;;;;;;;;5079267;28;19959;-57
2023/09/16 12:35:47;;;;;;;;;;;;;;;;;;5077205;28;19958;-57
2023/09/16 12:38:15;;;;;;;;;;;;;;;;;;5077060;28;19916;-57
2023/09/16 12:40:41;;;;;;;;;;;;;;;;;;5074329;28;19919;-57
2023/09/16 12:43:06;;;;;;;;;;;;;;;;;;5078800;28;19959;-57
2023/09/16 12:45:32;;;;;;;;;;;;;;;;;;5077946;28;19938;-58
2023/09/16 12:47:58;;;;;;;;;;;;;;;;;;5083396;28;19922;-57
2023/09/16 12:50:24;;;;;;;;;;;;;;;;;;5077023;28;19947;-57
2023/09/16 12:52:50;;;;;;;;;;;;;;;;;;5080515;28;20403;-57
2023/09/16 12:55:16;;;;;;;;;;;;;;;;;;5080340;28;19924;-57
2023/09/16 12:57:42;;;;;;;;;;;;;;;;;;5076698;28;19916;-58
2023/09/16 13:00:14;;;;;;;;;;;;;;;;;;5074054;28;19964;-58
2023/09/16 13:02:40;;;;;;;;;;;;;;;;;;5079302;28;19912;-57
2023/09/16 13:05:06;;;;;;;;;;;;;;;;;;5084437;28;19963;-58
2023/09/16 13:07:32;;;;;;;;;;;;;;;;;;5069709;28;19913;-57
2023/09/16 13:09:58;;;;;;;;;;;;;;;;;;5073744;28;19920;-58
2023/09/16 13:12:24;;;;;;;;;;;;;;;;;;5072040;28;20033;-60
2023/09/16 13:14:50;;;;;;;;;;;;;;;;;;5068620;28;20414;-57
2023/09/16 13:17:16;;;;;;;;;;;;;;;;;;5073960;28;19912;-59
2023/09/16 13:19:42;;;;;;;;;;;;;;;;;;5073930;28;19952;-58
2023/09/16 13:22:08;;;;;;;;;;;;;;;;;;5070579;28;19992;-58
2023/09/16 13:24:34;;;;;;;;;;;;;;;;;;5077819;28;19962;-57
2023/09/16 13:27:00;;;;;;;;;;;;;;;;;;5077026;28;19920;-58
2023/09/16 13:29:26;;;;;;;;;;;;;;;;;;5081095;28;20324;-58
2023/09/16 13:31:52;;;;;;;;;;;;;;;;;;5070605;28;19999;-57
2023/09/16 13:34:18;;;;;;;;;;;;;;;;;;5074395;28;19922;-57
2023/09/16 13:36:44;;;;;;;;;;;;;;;;;;5074205;28;20372;-57
2023/09/16 13:39:10;;;;;;;;;;;;;;;;;;5075525;28;19951;-59
2023/09/16 13:41:36;;;;;;;;;;;;;;;;;;5079213;28;20365;-58
2023/09/16 13:44:02;;;;;;;;;;;;;;;;;;5073767;28;19923;-58
2023/09/16 13:46:28;;;;;;;;;;;;;;;;;;5076875;28;20008;-58
2023/09/16 13:48:55;;;;;;;;;;;;;;;;;;5076359;28;19916;-58
2023/09/16 13:51:21;;;;;;;;;;;;;;;;;;5074981;28;19924;-60
2023/09/16 13:53:47;;;;;;;;;;;;;;;;;;5076012;28;19916;-60
2023/09/16 13:56:13;;;;;;;;;;;;;;;;;;5075463;28;19973;-61
2023/09/16 13:58:39;;;;;;;;;;;;;;;;;;5078168;28;19923;-60
2023/09/16 14:01:05;;;;;;;;;;;;;;;;;;5074935;28;19948;-61
2023/09/16 14:03:31;;;;;;;;;;;;;;;;;;5071412;28;19916;-61
2023/09/16 14:05:57;;;;;;;;;;;;;;;;;;5076840;28;19916;-61
2023/09/16 14:08:23;;;;;;;;;;;;;;;;;;5077007;28;19936;-61
2023/09/16 14:10:49;;;;;;;;;;;;;;;;;;5071664;28;19916;-61
2023/09/16 14:13:15;;;;;;;;;;;;;;;;;;5073276;28;20321;-60
2023/09/16 14:15:40;;;;;;;;;;;;;;;;;;5079573;28;20463;-61
2023/09/16 14:18:06;;;;;;;;;;;;;;;;;;5079781;28;19916;-60
2023/09/16 14:20:32;;;;;;;;;;;;;;;;;;5078852;28;19924;-60
2023/09/16 14:22:58;;;;;;;;;;;;;;;;;;5080108;28;20381;-61
2023/09/16 14:25:26;;;;;;;;;;;;;;;;;;5078258;28;19920;-60
2023/09/16 14:27:52;;;;;;;;;;;;;;;;;;5079397;28;20092;-61
2023/09/16 14:30:18;;;;;;;;;;;;;;;;;;5080001;28;20364;-60
2023/09/16 14:32:45;;;;;;;;;;;;;;;;;;5076355;28;19919;-60
2023/09/16 14:35:10;;;;;;;;;;;;;;;;;;5076404;28;19923;-60
2023/09/16 14:37:37;;;;;;;;;;;;;;;;;;5080595;28;20340;-60
2023/09/16 14:40:03;;;;;;;;;;;;;;;;;;5078844;28;20008;-60
2023/09/16 14:42:29;;;;;;;;;;;;;;;;;;5081211;28;20279;-60
2023/09/16 14:44:55;;;;;;;;;;;;;;;;;;5076158;28;19931;-60
2023/09/16 14:47:21;;;;;;;;;;;;;;;;;;5080860;28;19956;-60
2023/09/16 14:49:47;;;;;;;;;;;;;;;;;;5080836;28;20323;-60
2023/09/16 14:52:13;;;;;;;;;;;;;;;;;;5080316;28;20007;-60
2023/09/16 14:54:39;;;;;;;;;;;;;;;;;;5083243;28;19979;-60
2023/09/16 14:57:04;;;;;;;;;;;;;;;;;;5077543;28;19955;-60
2023/09/16 14:59:30;;;;;;;;;;;;;;;;;;5078522;28;19951;-60
2023/09/16 15:01:56;;;;;;;;;;;;;;;;;;5074646;28;19942;-61
2023/09/16 15:04:22;;;;;;;;;;;;;;;;;;5077424;28;19913;-62
2023/09/16 15:06:48;;;;;;;;;;;;;;;;;;5082075;28;19959;-62
2023/09/16 15:09:14;;;;;;;;;;;;;;;;;;5079935;28;20006;-61
2023/09/16 15:11:40;;;;;;;;;;;;;;;;;;5074961;28;20009;-65
2023/09/16 15:14:06;;;;;;;;;;;;;;;;;;5083111;28;20337;-60
2023/09/16 15:16:32;;;;;;;;;;;;;;;;;;5073570;28;19944;-63
2023/09/16 15:18:58;;;;;;;;;;;;;;;;;;5083542;28;20394;-65
2023/09/16 15:21:24;;;;;;;;;;;;;;;;;;5087890;28;20227;-65
2023/09/16 15:23:50;;;;;;;;;;;;;;;;;;5078774;28;19959;-66
2023/09/16 15:26:17;;;;;;;;;;;;;;;;;;5075027;28;22574;-61
2023/09/16 15:28:43;;;;;;;;;;;;;;;;;;5081151;28;19966;-61
2023/09/16 15:31:09;;;;;;;;;;;;;;;;;;5078396;28;19985;-62
2023/09/16 15:33:35;;;;;;;;;;;;;;;;;;5083478;28;19913;-64
2023/09/16 15:36:02;;;;;;;;;;;;;;;;;;5082093;28;19955;-59
2023/09/16 15:38:28;;;;;;;;;;;;;;;;;;5080423;28;19951;-61
2023/09/16 15:40:54;;;;;;;;;;;;;;;;;;5083643;28;19978;-61
2023/09/16 15:43:20;;;;;;;;;;;;;;;;;;5078989;28;19963;-61
2023/09/16 15:45:46;;;;;;;;;;;;;;;;;;5081628;28;19920;-61
2023/09/16 15:48:12;;;;;;;;;;;;;;;;;;5083497;28;21685;-61
2023/09/16 15:50:38;;;;;;;;;;;;;;;;;;5075086;28;20154;-60
2023/09/16 15:53:04;;;;;;;;;;;;;;;;;;5072185;28;19915;-60
2023/09/16 15:55:30;;;;;;;;;;;;;;;;;;5077995;28;19935;-61
2023/09/16 15:57:57;;;;;;;;;;;;;;;;;;5077274;28;20003;-61
2023/09/16 16:00:23;;;;;;;;;;;;;;;;;;5076131;28;20364;-60
2023/09/16 16:02:50;;;;;;;;;;;;;;;;;;5079555;28;20038;-61
2023/09/16 16:05:16;;;;;;;;;;;;;;;;;;5080846;28;19930;-61
2023/09/16 16:07:42;;;;;;;;;;;;;;;;;;5080067;28;19919;-60
2023/09/16 16:10:11;;;;;;;;;;;;;;;;;;5078812;28;19951;-59
2023/09/16 16:12:37;;;;;;;;;;;;;;;;;;5083544;28;19912;-59
2023/09/16 16:15:03;;;;;;;;;;;;;;;;;;5081181;28;19954;-60
2023/09/16 16:17:29;;;;;;;;;;;;;;;;;;5079182;28;19912;-60
2023/09/16 16:19:55;;;;;;;;;;;;;;;;;;5081909;28;20338;-60
2023/09/16 16:22:21;;;;;;;;;;;;;;;;;;5077183;28;19923;-61
2023/09/16 16:24:47;;;;;;;;;;;;;;;;;;5073709;28;19920;-60
2023/09/16 16:27:13;;;;;;;;;;;;;;;;;;5075814;28;20034;-61
2023/09/16 16:29:40;;;;;;;;;;;;;;;;;;5083210;28;20414;-61
2023/09/16 16:32:06;;;;;;;;;;;;;;;;;;5081670;28;19912;-61
2023/09/16 16:34:31;;;;;;;;;;;;;;;;;;5074381;28;20050;-62
2023/09/16 16:36:57;;;;;;;;;;;;;;;;;;5076361;28;20486;-63